createdAt,value
2022-08-12T00:02:46.729Z,1.00
2022-08-12T00:05:34.179Z,1.00
2022-08-12T00:08:28.863Z,1.00
2022-08-12T00:11:21.715Z,1.00
2022-08-12T00:14:07.428Z,1.00
2022-08-12T00:16:53.166Z,1.00
2022-08-12T00:19:40.445Z,1.00
2022-08-12T00:22:28.189Z,1.00
2022-08-12T00:25:17.658Z,1.00
2022-08-12T00:28:04.875Z,1.00
2022-08-12T00:30:50.894Z,1.00
2022-08-12T00:33:51.508Z,1.00
2022-08-12T00:36:45.051Z,1.00
2022-08-12T00:39:31.962Z,1.00
2022-08-12T00:42:11.410Z,1.00
2022-08-12T00:44:42.469Z,1.00
2022-08-12T00:47:24.827Z,1.00
2022-08-12T00:49:55.584Z,1.00
2022-08-12T00:52:26.299Z,1.00
2022-08-12T00:54:57.241Z,1.00
2022-08-12T00:57:28.783Z,1.00
2022-08-12T00:59:59.021Z,1.00
2022-08-12T01:02:30.056Z,1.00
2022-08-12T01:05:18.693Z,1.00
2022-08-12T01:08:07.625Z,1.00
2022-08-12T01:10:56.036Z,1.00
2022-08-12T01:13:25.278Z,1.00
2022-08-12T01:15:55.720Z,1.00
2022-08-12T01:18:26.545Z,1.00
2022-08-12T01:21:04.819Z,1.00
2022-08-12T01:24:30.176Z,1.00
2022-08-12T01:27:07.480Z,1.00
2022-08-12T01:29:43.921Z,1.00
2022-08-12T01:32:14.384Z,1.00
2022-08-12T01:34:51.565Z,1.00
2022-08-12T01:37:23.349Z,1.00
2022-08-12T01:40:34.588Z,1.00
2022-08-12T01:42:48.149Z,1.00
2022-08-12T01:45:22.988Z,1.00
2022-08-12T01:48:00.960Z,1.00
2022-08-12T01:50:43.155Z,1.00
2022-08-12T01:53:14.928Z,1.00
2022-08-12T01:55:46.683Z,1.00
2022-08-12T01:58:28.903Z,1.00
2022-08-12T02:01:03.701Z,1.00
2022-08-12T02:04:07.472Z,1.00
2022-08-12T02:07:04.801Z,1.00
2022-08-12T02:10:05.336Z,1.00
2022-08-12T02:12:49.569Z,1.00
2022-08-12T02:15:28.454Z,1.00
2022-08-12T02:18:05.272Z,1.00
2022-08-12T02:20:51.497Z,1.00
2022-08-12T02:23:27.030Z,1.00
2022-08-12T02:25:59.836Z,1.00
2022-08-12T02:28:28.974Z,1.00
2022-08-12T02:31:02.986Z,1.00
2022-08-12T02:33:32.166Z,1.00
2022-08-12T02:36:02.397Z,1.00
2022-08-12T02:38:31.474Z,1.00
2022-08-12T02:41:03.573Z,1.00
2022-08-12T02:43:37.280Z,1.00
2022-08-12T02:46:13.407Z,1.00
2022-08-12T02:48:47.723Z,1.00
2022-08-12T02:51:24.600Z,1.00
2022-08-12T02:54:04.466Z,1.00
2022-08-12T02:56:40.727Z,1.00
2022-08-12T02:59:10.663Z,1.00
2022-08-12T03:01:48.048Z,1.00
2022-08-12T03:04:26.783Z,1.00
2022-08-12T03:07:03.809Z,1.00
2022-08-12T03:09:43.108Z,1.00
2022-08-12T03:12:26.694Z,1.00
2022-08-12T03:15:06.592Z,1.00
2022-08-12T03:17:46.250Z,1.00
2022-08-12T03:20:40.979Z,1.00
2022-08-12T03:23:27.378Z,1.00
2022-08-12T03:25:59.032Z,1.00
2022-08-12T03:28:47.187Z,1.00
2022-08-12T03:31:15.403Z,1.00
2022-08-12T03:34:01.255Z,1.00
2022-08-12T03:36:31.935Z,1.00
2022-08-12T03:42:01.045Z,1.00
2022-08-12T03:44:51.376Z,1.00
2022-08-12T03:47:41.609Z,1.00
2022-08-12T03:50:27.520Z,1.00
2022-08-12T03:53:13.310Z,1.00
2022-08-12T03:55:59.119Z,1.00
2022-08-12T03:58:48.774Z,1.00
2022-08-12T04:01:17.123Z,1.00
2022-08-12T04:03:55.280Z,1.00
2022-08-12T04:06:34.350Z,1.00
2022-08-12T04:09:15.017Z,1.00
2022-08-12T04:12:03.986Z,1.00
2022-08-12T04:14:34.727Z,1.00
2022-08-12T04:17:03.713Z,1.00
2022-08-12T04:19:32.292Z,1.00
2022-08-12T04:22:03.269Z,1.00
2022-08-12T04:24:34.952Z,1.00
2022-08-12T04:27:06.269Z,1.00
2022-08-12T04:30:29.149Z,1.00
2022-08-12T04:32:25.830Z,1.00
2022-08-12T04:34:54.261Z,1.00
2022-08-12T04:37:23.277Z,1.00
2022-08-12T04:39:52.788Z,1.00
2022-08-12T04:42:21.242Z,1.00
2022-08-12T04:44:50.800Z,1.00
2022-08-12T04:47:20.387Z,1.00
2022-08-12T04:49:49.350Z,1.00
2022-08-12T04:52:18.073Z,1.00
2022-08-12T04:54:47.540Z,1.00
2022-08-12T04:57:16.051Z,1.00
2022-08-12T04:59:47.936Z,1.00
2022-08-12T05:02:22.109Z,1.00
2022-08-12T05:04:52.697Z,1.00
2022-08-12T05:07:23.869Z,1.00
2022-08-12T05:09:59.992Z,1.00
2022-08-12T05:12:38.440Z,1.00
2022-08-12T05:15:16.795Z,1.00
2022-08-12T05:18:00.245Z,1.00
2022-08-12T05:20:30.883Z,1.00
2022-08-12T05:23:13.012Z,1.00
2022-08-12T05:25:43.091Z,1.00
2022-08-12T05:28:13.091Z,1.00
2022-08-12T05:30:42.728Z,1.00
2022-08-12T05:33:13.768Z,1.00
2022-08-12T05:35:44.633Z,1.00
2022-08-12T05:38:32.460Z,1.00
2022-08-12T05:41:01.167Z,1.00
2022-08-12T05:43:29.860Z,1.00
2022-08-12T05:45:59.625Z,1.00
2022-08-12T05:48:30.791Z,1.00
2022-08-12T05:50:59.020Z,1.00
2022-08-12T05:53:27.254Z,1.00
2022-08-12T05:55:55.554Z,1.00
2022-08-12T05:58:23.916Z,1.00
2022-08-12T06:00:52.287Z,1.00
2022-08-12T06:03:21.423Z,1.00
2022-08-12T06:05:55.216Z,1.00
2022-08-12T06:08:25.022Z,1.00
2022-08-12T06:10:54.334Z,1.00
2022-08-12T06:13:28.369Z,1.00
2022-08-12T06:16:11.751Z,1.00
2022-08-12T06:18:40.737Z,1.00
2022-08-12T06:21:11.833Z,1.00
2022-08-12T06:23:42.867Z,1.00
2022-08-12T06:26:13.133Z,1.00
2022-08-12T06:28:41.473Z,1.00
2022-08-12T06:31:25.822Z,1.00
2022-08-12T06:35:24.070Z,1.00
2022-08-12T06:36:45.693Z,1.00
2022-08-12T06:39:15.343Z,1.00
2022-08-12T06:42:30.994Z,1.00
2022-08-12T06:44:50.660Z,1.00
2022-08-12T06:47:19.930Z,1.00
2022-08-12T06:49:49.569Z,6.50
2022-08-12T06:52:25.041Z,1.00
2022-08-12T06:54:55.581Z,1.00
2022-08-12T06:57:57.248Z,1.00
2022-08-12T07:00:21.864Z,1.00
2022-08-12T07:02:57.292Z,1.00
2022-08-12T07:05:26.308Z,1.00
2022-08-12T07:08:10.242Z,1.00
2022-08-12T07:10:43.968Z,1.00
2022-08-12T07:13:12.831Z,1.00
2022-08-12T07:15:45.401Z,1.00
2022-08-12T07:18:17.854Z,1.00
2022-08-12T07:20:52.952Z,1.00
2022-08-12T07:23:22.819Z,1.00
2022-08-12T07:25:54.094Z,1.00
2022-08-12T07:28:28.222Z,1.10
2022-08-12T07:30:57.688Z,1.00
2022-08-12T07:33:29.210Z,1.00
2022-08-12T07:36:02.294Z,1.00
2022-08-12T07:38:34.816Z,1.20
2022-08-12T07:41:06.800Z,1.00
2022-08-12T07:43:38.869Z,1.90
2022-08-12T07:46:10.942Z,1.00
2022-08-12T07:48:42.090Z,1.00
2022-08-12T07:51:11.856Z,1.00
2022-08-12T07:54:00.241Z,1.00
2022-08-12T07:56:31.177Z,1.20
2022-08-12T07:59:01.143Z,1.00
2022-08-12T08:01:30.655Z,2.20
2022-08-12T08:04:18.986Z,1.00
2022-08-12T08:06:48.906Z,1.00
2022-08-12T08:09:21.484Z,1.00
2022-08-12T08:12:08.029Z,1.20
2022-08-12T08:14:36.956Z,1.60
2022-08-12T08:17:06.750Z,1.90
2022-08-12T08:20:01.979Z,2.40
2022-08-12T08:22:41.058Z,1.30
2022-08-12T08:25:34.994Z,1.00
2022-08-12T08:28:03.392Z,1.00
2022-08-12T08:30:34.665Z,1.00
2022-08-12T08:33:03.138Z,1.00
2022-08-12T08:35:48.501Z,1.40
2022-08-12T08:38:30.773Z,1.10
2022-08-12T08:42:19.265Z,1.00
2022-08-12T08:44:11.129Z,1.50
2022-08-12T08:46:40.220Z,2.20
2022-08-12T08:49:09.211Z,2.20
2022-08-12T08:51:38.671Z,1.90
2022-08-12T08:54:08.508Z,2.80
2022-08-12T08:56:44.179Z,4.00
2022-08-12T08:59:13.515Z,2.50
2022-08-12T09:01:44.494Z,2.30
2022-08-12T09:05:07.720Z,1.00
2022-08-12T09:13:01.091Z,1.30
2022-08-12T09:15:34.914Z,1.00
2022-08-12T09:18:05.974Z,1.30
2022-08-12T09:20:39.565Z,2.20
2022-08-12T09:23:58.558Z,2.20
2022-08-12T09:26:03.953Z,2.40
2022-08-12T09:28:37.030Z,3.90
2022-08-12T09:32:03.216Z,4.40
2022-08-12T09:34:27.833Z,2.60
2022-08-12T09:36:57.749Z,1.00
2022-08-12T09:40:06.207Z,1.00
2022-08-12T09:42:49.269Z,1.00
2022-08-12T09:46:07.049Z,1.00
2022-08-12T09:48:21.995Z,1.00
2022-08-12T09:50:55.114Z,1.00
2022-08-12T09:53:35.989Z,1.00
2022-08-12T09:57:03.164Z,1.00
2022-08-12T09:59:01.623Z,1.00
2022-08-12T10:01:35.636Z,1.00
2022-08-12T10:04:20.988Z,1.00
2022-08-12T10:06:55.715Z,1.10
2022-08-12T10:09:28.866Z,1.00
2022-08-12T10:12:32.982Z,1.00
2022-08-12T10:15:02.284Z,1.00
2022-08-12T10:17:32.462Z,1.00
2022-08-12T10:20:01.809Z,1.50
2022-08-12T10:22:38.089Z,2.70
2022-08-12T10:26:18.939Z,3.10
2022-08-12T10:29:01.930Z,3.00
2022-08-12T10:31:31.505Z,15.10
2022-08-12T10:34:26.001Z,5.20
2022-08-12T10:36:58.737Z,3.80
2022-08-12T10:40:00.218Z,3.40
2022-08-12T10:42:38.921Z,4.30
2022-08-12T10:45:18.431Z,4.70
2022-08-12T10:48:20.123Z,5.40
2022-08-12T10:51:00.416Z,5.40
2022-08-12T10:53:44.966Z,4.10
2022-08-12T10:56:15.556Z,4.50
2022-08-12T10:58:45.963Z,4.10
2022-08-12T11:01:49.262Z,4.60
2022-08-12T11:04:35.687Z,6.10
2022-08-12T11:07:03.694Z,7.80
2022-08-12T11:09:59.650Z,4.80
2022-08-12T11:12:55.585Z,5.50
2022-08-12T11:15:32.791Z,5.90
2022-08-12T11:18:18.566Z,6.90
2022-08-12T11:20:49.278Z,6.30
2022-08-12T11:23:35.764Z,5.90
2022-08-12T11:26:08.077Z,5.90
2022-08-12T11:28:38.615Z,6.70
2022-08-12T11:31:12.317Z,5.10
2022-08-12T11:34:05.327Z,3.40
2022-08-12T11:36:31.755Z,2.80
2022-08-12T11:39:04.654Z,4.00
2022-08-12T11:41:34.745Z,3.40
2022-08-12T11:44:35.117Z,3.90
2022-08-12T11:46:54.048Z,4.90
2022-08-12T11:49:32.198Z,5.70
2022-08-12T11:52:02.458Z,6.80
2022-08-12T11:54:32.307Z,6.80
2022-08-12T11:58:14.397Z,7.80
2022-08-12T12:02:39.391Z,7.40
2022-08-12T12:05:08.653Z,8.30
2022-08-12T12:08:39.006Z,6.40
2022-08-12T12:10:29.600Z,5.80
2022-08-12T12:12:57.761Z,7.20
2022-08-12T12:15:37.354Z,7.40
2022-08-12T12:18:22.485Z,6.80
2022-08-12T12:21:01.658Z,6.40
2022-08-12T12:23:36.381Z,3.00
2022-08-12T12:26:08.553Z,4.40
2022-08-12T12:28:54.868Z,5.00
2022-08-12T12:32:10.932Z,6.50
2022-08-12T12:34:12.484Z,6.90
2022-08-12T12:36:58.840Z,5.30
2022-08-12T12:39:29.395Z,6.60
2022-08-12T12:42:43.379Z,3.70
2022-08-12T12:45:19.099Z,4.20
2022-08-12T12:48:00.020Z,2.90
2022-08-12T12:50:35.341Z,5.40
2022-08-12T12:53:04.919Z,6.60
2022-08-12T12:55:36.076Z,6.50
2022-08-12T12:58:11.249Z,7.20
2022-08-12T13:00:49.998Z,7.60
2022-08-12T13:03:21.980Z,8.60
2022-08-12T13:05:53.799Z,9.10
2022-08-12T13:08:27.863Z,8.50
2022-08-12T13:11:00.782Z,7.90
2022-08-12T13:14:08.878Z,8.10
2022-08-12T13:16:21.773Z,7.60
2022-08-12T13:18:50.514Z,7.60
2022-08-12T13:21:36.497Z,7.60
2022-08-12T13:24:10.032Z,6.70
2022-08-12T13:26:40.735Z,6.20
2022-08-12T13:29:11.553Z,6.50
2022-08-12T13:31:46.317Z,6.10
2022-08-12T13:34:34.503Z,4.60
2022-08-12T13:37:09.166Z,4.20
2022-08-12T13:39:39.682Z,4.60
2022-08-12T13:42:14.680Z,6.00
2022-08-12T13:44:46.279Z,6.60
2022-08-12T13:47:19.569Z,6.40
2022-08-12T13:49:55.054Z,7.20
2022-08-12T13:52:25.579Z,7.40
2022-08-12T13:54:56.811Z,6.60
2022-08-12T13:57:26.786Z,7.70
2022-08-12T14:00:00.483Z,7.90
2022-08-12T14:02:30.183Z,9.10
2022-08-12T14:04:58.582Z,7.80
2022-08-12T14:07:27.524Z,8.00
2022-08-12T14:10:16.129Z,7.80
2022-08-12T14:12:54.383Z,7.40
2022-08-12T14:15:35.061Z,6.80
2022-08-12T14:18:13.883Z,8.00
2022-08-12T14:20:47.725Z,6.40
2022-08-12T14:24:04.615Z,6.90
2022-08-12T14:26:11.702Z,8.40
2022-08-12T14:28:45.469Z,8.10
2022-08-12T14:31:31.765Z,5.80
2022-08-12T14:34:05.055Z,7.30
2022-08-12T14:36:34.155Z,5.60
2022-08-12T14:39:04.755Z,6.20
2022-08-12T14:41:37.332Z,7.10
2022-08-12T14:44:57.330Z,8.40
2022-08-12T14:47:08.835Z,8.60
2022-08-12T14:50:34.165Z,8.30
2022-08-12T14:52:58.942Z,8.20
2022-08-12T14:58:07.104Z,7.90
2022-08-12T15:00:53.509Z,6.70
2022-08-12T15:03:52.682Z,7.50
2022-08-12T15:06:39.316Z,6.70
2022-08-12T15:09:12.065Z,6.70
2022-08-12T15:11:54.539Z,7.20
2022-08-12T15:14:27.688Z,9.50
2022-08-12T15:16:59.923Z,8.30
2022-08-12T15:20:31.888Z,6.40
2022-08-12T15:22:35.528Z,7.60
2022-08-12T15:25:09.083Z,7.30
2022-08-12T15:28:03.877Z,7.60
2022-08-12T15:30:32.506Z,8.40
2022-08-12T15:33:03.233Z,8.20
2022-08-12T15:35:52.076Z,7.20
2022-08-12T15:38:24.732Z,7.60
2022-08-12T15:40:53.493Z,6.30
2022-08-12T15:44:15.919Z,6.70
2022-08-12T15:46:15.637Z,5.80
2022-08-12T15:48:46.314Z,5.90
2022-08-12T15:51:57.336Z,5.70
2022-08-12T15:54:33.724Z,5.70
2022-08-12T15:57:05.539Z,6.10
2022-08-12T16:00:00.405Z,5.30
2022-08-12T16:02:27.062Z,4.40
2022-08-12T16:04:57.394Z,4.80
2022-08-12T16:07:31.109Z,5.30
2022-08-12T16:10:06.688Z,5.10
2022-08-12T16:12:50.270Z,7.20
2022-08-12T16:15:24.853Z,6.50
2022-08-12T16:18:18.476Z,7.60
2022-08-12T16:20:46.848Z,7.20
2022-08-12T16:23:35.852Z,6.20
2022-08-12T16:26:14.580Z,6.30
2022-08-12T16:28:44.324Z,7.80
2022-08-12T16:31:23.056Z,9.10
2022-08-12T16:33:58.817Z,10.80
2022-08-12T16:36:29.897Z,7.10
2022-08-12T16:39:03.592Z,16.10
2022-08-12T16:41:37.886Z,4.40
2022-08-12T16:44:09.226Z,7.50
2022-08-12T16:46:38.092Z,5.80
2022-08-12T16:49:13.186Z,5.80
2022-08-12T16:51:46.645Z,6.90
2022-08-12T16:54:18.547Z,3.80
2022-08-12T16:56:54.961Z,4.60
2022-08-12T16:59:53.387Z,6.90
2022-08-12T17:02:31.240Z,4.40
2022-08-12T17:05:03.267Z,3.90
2022-08-12T17:07:43.215Z,4.10
2022-08-12T17:10:18.419Z,4.00
2022-08-12T17:13:09.787Z,3.30
2022-08-12T17:15:57.676Z,4.40
2022-08-12T17:18:43.136Z,3.20
2022-08-12T17:21:15.305Z,3.20
2022-08-12T17:23:53.578Z,2.40
2022-08-12T17:26:30.911Z,4.40
2022-08-12T17:29:01.029Z,2.90
2022-08-12T17:31:59.923Z,3.60
2022-08-12T17:34:33.415Z,3.70
2022-08-12T17:37:05.446Z,2.80
2022-08-12T17:40:12.667Z,3.20
2022-08-12T17:42:32.509Z,3.50
2022-08-12T17:45:17.899Z,3.60
2022-08-12T17:48:02.233Z,3.40
2022-08-12T17:50:34.659Z,3.70
2022-08-12T17:53:03.960Z,2.10
2022-08-12T17:55:40.835Z,2.60
2022-08-12T17:58:14.708Z,1.20
2022-08-12T18:00:45.510Z,1.80
2022-08-12T18:04:05.090Z,1.00
2022-08-12T18:06:08.485Z,1.90
2022-08-12T18:08:53.662Z,1.10
2022-08-12T18:12:04.138Z,11.80
2022-08-12T18:14:31.454Z,1.00
2022-08-12T18:17:01.761Z,1.30
2022-08-12T18:19:34.047Z,1.00
2022-08-12T18:22:21.983Z,1.00
2022-08-12T18:25:02.674Z,1.00
2022-08-12T18:27:44.922Z,1.00
2022-08-12T18:30:29.534Z,1.00
2022-08-12T18:33:04.605Z,1.00
2022-08-12T18:35:47.573Z,1.00
2022-08-12T18:38:24.705Z,1.00
2022-08-12T18:41:21.663Z,1.00
2022-08-12T18:44:00.935Z,1.00
2022-08-12T18:46:55.750Z,1.00
2022-08-12T18:49:32.046Z,1.00
2022-08-12T18:52:07.948Z,1.00
2022-08-12T18:54:41.436Z,1.00
2022-08-12T18:57:46.467Z,1.00
2022-08-12T19:00:09.802Z,1.00
2022-08-12T19:02:40.711Z,1.00
2022-08-12T19:05:11.729Z,1.00
2022-08-12T19:07:50.182Z,1.00
2022-08-12T19:10:29.742Z,2.60
2022-08-12T19:13:23.530Z,1.00
2022-08-12T19:15:54.714Z,1.00
2022-08-12T19:18:30.125Z,1.00
2022-08-12T19:21:11.914Z,1.00
2022-08-12T19:23:44.192Z,1.00
2022-08-12T19:26:13.233Z,1.00
2022-08-12T19:28:43.187Z,1.00
2022-08-12T19:31:55.872Z,1.00
2022-08-12T19:37:27.014Z,1.00
2022-08-12T19:40:07.828Z,1.00
2022-08-12T19:42:42.686Z,1.00
2022-08-12T19:45:15.713Z,1.00
2022-08-12T19:47:46.444Z,1.00
2022-08-12T19:50:20.053Z,1.00
2022-08-12T19:52:51.080Z,1.00
2022-08-12T19:55:25.065Z,1.00
2022-08-12T19:58:01.660Z,1.00
2022-08-12T20:00:34.805Z,1.00
2022-08-12T20:03:05.335Z,1.00
2022-08-12T20:06:06.528Z,1.00
2022-08-12T20:08:29.337Z,1.00
2022-08-12T20:12:11.510Z,1.00
2022-08-12T20:14:01.383Z,1.00
2022-08-12T20:16:57.777Z,1.00
2022-08-12T20:19:52.500Z,1.00
2022-08-12T20:22:24.776Z,1.00
2022-08-12T20:25:01.017Z,1.00
2022-08-12T20:28:02.667Z,1.00
2022-08-12T20:30:53.147Z,1.00
2022-08-12T20:33:18.464Z,1.00
2022-08-12T20:36:13.163Z,1.00
2022-08-12T20:38:45.948Z,1.00
2022-08-12T20:41:18.287Z,1.00
2022-08-12T20:43:50.720Z,1.00
2022-08-12T20:46:21.830Z,1.00
2022-08-12T20:48:55.029Z,1.00
2022-08-12T20:51:27.539Z,1.00
2022-08-12T20:53:59.669Z,1.00
2022-08-12T20:56:34.666Z,1.00
2022-08-12T20:59:06.819Z,1.00
2022-08-12T21:01:45.923Z,1.00
2022-08-12T21:04:33.345Z,1.00
2022-08-12T21:07:09.458Z,1.00
2022-08-12T21:09:44.461Z,1.00
2022-08-12T21:12:27.524Z,1.00
2022-08-12T21:15:22.839Z,1.00
2022-08-12T21:18:07.915Z,1.00
2022-08-12T21:20:37.967Z,1.00
2022-08-12T21:23:06.585Z,1.00
2022-08-12T21:25:45.672Z,1.00
2022-08-12T21:28:14.853Z,1.00
2022-08-12T21:31:10.631Z,1.00
2022-08-12T21:33:58.755Z,1.00
2022-08-12T21:36:22.922Z,1.00
2022-08-12T21:39:20.295Z,1.00
2022-08-12T21:41:52.863Z,1.00
2022-08-12T21:44:24.671Z,1.00
2022-08-12T21:47:20.033Z,1.00
2022-08-12T21:49:55.040Z,1.00
2022-08-12T21:52:28.225Z,1.00
2022-08-12T21:55:02.638Z,1.00
2022-08-12T21:57:36.174Z,1.00
2022-08-12T22:00:17.295Z,1.00
2022-08-12T22:03:04.170Z,1.00
2022-08-12T22:05:50.319Z,1.00
2022-08-12T22:08:22.289Z,1.00
2022-08-12T22:10:56.277Z,1.00
2022-08-12T22:14:07.632Z,1.00
2022-08-12T22:16:16.155Z,1.00
2022-08-12T22:18:50.282Z,1.00
2022-08-12T22:21:22.110Z,1.00
2022-08-12T22:24:05.040Z,1.00
2022-08-12T22:26:37.932Z,1.00
2022-08-12T22:29:27.440Z,1.00
2022-08-12T22:31:56.155Z,1.00
2022-08-12T22:34:33.328Z,1.00
2022-08-12T22:37:02.498Z,1.00
2022-08-12T22:39:31.710Z,1.00
2022-08-12T22:42:19.824Z,1.00
2022-08-12T22:45:15.948Z,1.00
2022-08-12T22:47:54.927Z,1.00
2022-08-12T22:50:27.636Z,1.00
2022-08-12T22:53:15.124Z,1.00
2022-08-12T22:55:59.667Z,1.00
2022-08-12T22:58:36.692Z,1.00
2022-08-12T23:01:13.656Z,1.00
2022-08-12T23:03:47.955Z,1.00
2022-08-12T23:06:21.217Z,1.00
2022-08-12T23:08:49.889Z,1.00
2022-08-12T23:11:23.763Z,1.00
2022-08-12T23:13:57.046Z,1.00
2022-08-12T23:16:33.401Z,1.00
2022-08-12T23:19:10.851Z,1.00
2022-08-12T23:22:05.205Z,1.00
2022-08-12T23:24:41.095Z,1.00
2022-08-12T23:27:50.267Z,1.00
2022-08-12T23:30:24.958Z,1.00
2022-08-12T23:33:01.366Z,1.00
2022-08-12T23:35:53.625Z,1.00
2022-08-12T23:38:31.681Z,1.00
2022-08-12T23:41:02.032Z,1.00
2022-08-12T23:43:39.349Z,1.00
2022-08-12T23:46:10.102Z,1.00
2022-08-12T23:48:40.327Z,1.00
2022-08-12T23:51:22.635Z,1.00
2022-08-12T23:53:54.664Z,1.00
2022-08-12T23:56:24.733Z,1.00
2022-08-12T23:58:55.168Z,1.00
